sensor_id;sensor_type;location;lat;lon;timestamp;pressure;altitude;pressure_sealevel;temperature;humidity
59939;BME280;45801;51.810;19.444;2023-12-29T00:02:11;98811.34;;;5.87;69.29
59939;BME280;45801;51.810;19.444;2023-12-29T00:04:38;98807.42;;;5.82;69.58
59939;BME280;45801;51.810;19.444;2023-12-29T00:07:05;98806.20;;;5.83;69.68
59939;BME280;45801;51.810;19.444;2023-12-29T00:09:31;98803.27;;;5.83;69.43
59939;BME280;45801;51.810;19.444;2023-12-29T00:12:04;98806.33;;;5.82;69.73
59939;BME280;45801;51.810;19.444;2023-12-29T00:14:31;98799.23;;;5.76;70.08
59939;BME280;45801;51.810;19.444;2023-12-29T00:16:58;98800.15;;;5.77;70.04
59939;BME280;45801;51.810;19.444;2023-12-29T00:19:25;98796.59;;;5.78;69.85
59939;BME280;45801;51.810;19.444;2023-12-29T00:21:51;98794.44;;;5.80;69.81
59939;BME280;45801;51.810;19.444;2023-12-29T00:24:18;98794.42;;;5.80;69.98
59939;BME280;45801;51.810;19.444;2023-12-29T00:26:45;98792.75;;;5.85;69.84
59939;BME280;45801;51.810;19.444;2023-12-29T00:29:11;98792.38;;;5.84;70.13
59939;BME280;45801;51.810;19.444;2023-12-29T00:31:38;98790.93;;;5.86;69.88
59939;BME280;45801;51.810;19.444;2023-12-29T00:34:04;98785.71;;;5.89;69.50
59939;BME280;45801;51.810;19.444;2023-12-29T00:36:31;98785.94;;;5.90;69.39
59939;BME280;45801;51.810;19.444;2023-12-29T00:38:58;98783.39;;;5.91;69.43
59939;BME280;45801;51.810;19.444;2023-12-29T00:41:24;98784.27;;;5.95;69.42
59939;BME280;45801;51.810;19.444;2023-12-29T00:43:51;98781.48;;;5.95;69.32
59939;BME280;45801;51.810;19.444;2023-12-29T00:46:17;98774.74;;;5.95;69.37
59939;BME280;45801;51.810;19.444;2023-12-29T00:48:44;98776.59;;;5.97;69.23
59939;BME280;45801;51.810;19.444;2023-12-29T00:51:10;98769.66;;;5.94;69.35
59939;BME280;45801;51.810;19.444;2023-12-29T00:53:37;98766.14;;;5.90;69.56
59939;BME280;45801;51.810;19.444;2023-12-29T00:56:10;98770.45;;;5.90;69.46
59939;BME280;45801;51.810;19.444;2023-12-29T00:58:37;98767.70;;;5.93;69.31
59939;BME280;45801;51.810;19.444;2023-12-29T01:01:06;98765.73;;;5.92;69.56
59939;BME280;45801;51.810;19.444;2023-12-29T01:03:34;98762.04;;;5.92;69.66
59939;BME280;45801;51.810;19.444;2023-12-29T01:06:01;98760.39;;;5.93;69.40
59939;BME280;45801;51.810;19.444;2023-12-29T01:08:28;98758.98;;;5.93;69.56
59939;BME280;45801;51.810;19.444;2023-12-29T01:10:54;98757.96;;;5.94;69.59
59939;BME280;45801;51.810;19.444;2023-12-29T01:13:21;98758.20;;;5.92;69.68
59939;BME280;45801;51.810;19.444;2023-12-29T01:15:47;98755.73;;;5.94;69.70
59939;BME280;45801;51.810;19.444;2023-12-29T01:18:14;98753.66;;;5.91;69.82
59939;BME280;45801;51.810;19.444;2023-12-29T01:20:40;98751.70;;;5.90;70.32
59939;BME280;45801;51.810;19.444;2023-12-29T01:23:07;98745.14;;;5.97;70.62
59939;BME280;45801;51.810;19.444;2023-12-29T01:25:34;98739.33;;;6.12;70.03
59939;BME280;45801;51.810;19.444;2023-12-29T01:28:00;98732.11;;;6.13;69.33
59939;BME280;45801;51.810;19.444;2023-12-29T01:30:27;98724.31;;;6.14;69.47
59939;BME280;45801;51.810;19.444;2023-12-29T01:32:53;98725.59;;;6.15;69.54
59939;BME280;45801;51.810;19.444;2023-12-29T01:35:20;98723.96;;;6.11;69.49
59939;BME280;45801;51.810;19.444;2023-12-29T01:37:47;98724.69;;;6.05;69.42
59939;BME280;45801;51.810;19.444;2023-12-29T01:40:13;98721.77;;;6.02;69.72
59939;BME280;45801;51.810;19.444;2023-12-29T01:42:40;98719.23;;;6.03;69.48
59939;BME280;45801;51.810;19.444;2023-12-29T01:45:20;98716.14;;;5.97;69.80
59939;BME280;45801;51.810;19.444;2023-12-29T01:47:49;98713.75;;;5.98;69.76
59939;BME280;45801;51.810;19.444;2023-12-29T01:50:21;98712.14;;;6.01;69.66
59939;BME280;45801;51.810;19.444;2023-12-29T01:52:48;98707.23;;;5.94;69.78
59939;BME280;45801;51.810;19.444;2023-12-29T01:55:18;98704.67;;;5.92;69.92
59939;BME280;45801;51.810;19.444;2023-12-29T01:57:46;98700.70;;;5.92;69.85
59939;BME280;45801;51.810;19.444;2023-12-29T02:00:14;98696.55;;;5.96;69.91
59939;BME280;45801;51.810;19.444;2023-12-29T02:02:44;98697.07;;;5.98;69.69
59939;BME280;45801;51.810;19.444;2023-12-29T02:05:13;98696.55;;;5.98;69.47
59939;BME280;45801;51.810;19.444;2023-12-29T02:07:42;98695.02;;;5.99;69.45
59939;BME280;45801;51.810;19.444;2023-12-29T02:10:09;98695.07;;;6.00;69.34
59939;BME280;45801;51.810;19.444;2023-12-29T02:12:40;98693.14;;;5.99;69.51
59939;BME280;45801;51.810;19.444;2023-12-29T02:15:07;98686.00;;;6.03;69.33
59939;BME280;45801;51.810;19.444;2023-12-29T02:18:07;98685.31;;;6.06;69.14
59939;BME280;45801;51.810;19.444;2023-12-29T02:20:35;98686.89;;;6.03;69.27
59939;BME280;45801;51.810;19.444;2023-12-29T02:23:02;98689.61;;;6.02;69.24
59939;BME280;45801;51.810;19.444;2023-12-29T02:25:29;98685.02;;;6.01;69.20
59939;BME280;45801;51.810;19.444;2023-12-29T02:27:59;98683.77;;;6.00;69.19
59939;BME280;45801;51.810;19.444;2023-12-29T02:33:20;98678.01;;;5.96;68.66
59939;BME280;45801;51.810;19.444;2023-12-29T02:35:49;98676.15;;;5.91;68.99
59939;BME280;45801;51.810;19.444;2023-12-29T02:38:17;98671.94;;;5.90;69.10
59939;BME280;45801;51.810;19.444;2023-12-29T02:40:45;98674.77;;;5.88;68.90
59939;BME280;45801;51.810;19.444;2023-12-29T02:43:12;98672.16;;;5.84;68.96
59939;BME280;45801;51.810;19.444;2023-12-29T02:45:39;98667.73;;;5.83;69.13
59939;BME280;45801;51.810;19.444;2023-12-29T02:48:06;98664.08;;;5.76;69.48
59939;BME280;45801;51.810;19.444;2023-12-29T02:50:32;98656.98;;;5.74;69.40
59939;BME280;45801;51.810;19.444;2023-12-29T02:52:59;98656.45;;;5.70;69.55
59939;BME280;45801;51.810;19.444;2023-12-29T02:55:26;98658.05;;;5.68;69.83
59939;BME280;45801;51.810;19.444;2023-12-29T02:57:52;98660.84;;;5.68;69.67
59939;BME280;45801;51.810;19.444;2023-12-29T03:00:19;98662.49;;;5.70;69.51
59939;BME280;45801;51.810;19.444;2023-12-29T03:02:46;98660.24;;;5.70;69.53
59939;BME280;45801;51.810;19.444;2023-12-29T03:05:13;98657.59;;;5.69;69.68
59939;BME280;45801;51.810;19.444;2023-12-29T03:07:41;98659.79;;;5.71;69.57
59939;BME280;45801;51.810;19.444;2023-12-29T03:10:08;98660.35;;;5.72;69.78
59939;BME280;45801;51.810;19.444;2023-12-29T03:12:34;98659.17;;;5.72;69.65
59939;BME280;45801;51.810;19.444;2023-12-29T03:15:02;98660.38;;;5.69;69.62
59939;BME280;45801;51.810;19.444;2023-12-29T03:17:29;98656.55;;;5.62;69.88
59939;BME280;45801;51.810;19.444;2023-12-29T03:19:55;98659.84;;;5.59;70.07
59939;BME280;45801;51.810;19.444;2023-12-29T03:22:22;98659.75;;;5.57;69.95
59939;BME280;45801;51.810;19.444;2023-12-29T03:24:48;98662.79;;;5.59;69.92
59939;BME280;45801;51.810;19.444;2023-12-29T03:27:15;98664.80;;;5.61;69.90
59939;BME280;45801;51.810;19.444;2023-12-29T03:29:42;98659.48;;;5.65;70.00
59939;BME280;45801;51.810;19.444;2023-12-29T03:32:08;98658.80;;;5.65;70.21
59939;BME280;45801;51.810;19.444;2023-12-29T03:34:35;98652.91;;;5.65;70.13
59939;BME280;45801;51.810;19.444;2023-12-29T03:37:01;98651.78;;;5.67;70.37
59939;BME280;45801;51.810;19.444;2023-12-29T03:39:28;98649.58;;;5.69;70.57
59939;BME280;45801;51.810;19.444;2023-12-29T03:41:56;98650.70;;;5.70;70.52
59939;BME280;45801;51.810;19.444;2023-12-29T03:44:22;98651.31;;;5.65;70.84
59939;BME280;45801;51.810;19.444;2023-12-29T03:46:49;98650.13;;;5.66;70.63
59939;BME280;45801;51.810;19.444;2023-12-29T03:49:16;98644.14;;;5.68;70.63
59939;BME280;45801;51.810;19.444;2023-12-29T03:51:42;98643.41;;;5.70;70.94
59939;BME280;45801;51.810;19.444;2023-12-29T03:54:09;98640.48;;;5.70;71.27
59939;BME280;45801;51.810;19.444;2023-12-29T03:56:35;98640.60;;;5.73;71.45
59939;BME280;45801;51.810;19.444;2023-12-29T03:59:02;98634.85;;;5.72;71.69
59939;BME280;45801;51.810;19.444;2023-12-29T04:01:29;98633.17;;;5.67;72.23
59939;BME280;45801;51.810;19.444;2023-12-29T04:03:55;98632.61;;;5.66;72.31
59939;BME280;45801;51.810;19.444;2023-12-29T04:06:22;98629.79;;;5.69;72.26
59939;BME280;45801;51.810;19.444;2023-12-29T04:08:48;98626.30;;;5.69;72.65
59939;BME280;45801;51.810;19.444;2023-12-29T04:11:15;98621.79;;;5.69;72.79
59939;BME280;45801;51.810;19.444;2023-12-29T04:13:41;98622.60;;;5.71;72.44
59939;BME280;45801;51.810;19.444;2023-12-29T04:16:08;98618.50;;;5.76;72.06
59939;BME280;45801;51.810;19.444;2023-12-29T04:18:34;98618.02;;;5.76;72.29
59939;BME280;45801;51.810;19.444;2023-12-29T04:21:01;98623.12;;;5.74;72.86
59939;BME280;45801;51.810;19.444;2023-12-29T04:23:27;98624.69;;;5.77;72.74
59939;BME280;45801;51.810;19.444;2023-12-29T04:25:54;98620.41;;;5.82;72.26
59939;BME280;45801;51.810;19.444;2023-12-29T04:28:21;98622.98;;;5.81;73.11
59939;BME280;45801;51.810;19.444;2023-12-29T04:30:47;98620.17;;;5.84;72.81
59939;BME280;45801;51.810;19.444;2023-12-29T04:33:14;98621.30;;;5.82;73.37
59939;BME280;45801;51.810;19.444;2023-12-29T04:35:40;98627.96;;;5.80;73.71
59939;BME280;45801;51.810;19.444;2023-12-29T04:38:07;98628.47;;;5.76;73.60
59939;BME280;45801;51.810;19.444;2023-12-29T04:40:33;98626.48;;;5.75;74.04
59939;BME280;45801;51.810;19.444;2023-12-29T04:43:00;98618.94;;;5.77;73.77
59939;BME280;45801;51.810;19.444;2023-12-29T04:45:26;98604.98;;;5.82;73.30
59939;BME280;45801;51.810;19.444;2023-12-29T04:47:53;98596.75;;;5.78;73.78
59939;BME280;45801;51.810;19.444;2023-12-29T04:50:19;98595.66;;;5.84;73.39
59939;BME280;45801;51.810;19.444;2023-12-29T04:52:46;98592.77;;;5.85;73.60
59939;BME280;45801;51.810;19.444;2023-12-29T04:55:13;98594.89;;;5.86;73.59
59939;BME280;45801;51.810;19.444;2023-12-29T04:57:39;98592.02;;;5.87;73.33
59939;BME280;45801;51.810;19.444;2023-12-29T05:00:06;98594.86;;;5.82;73.84
59939;BME280;45801;51.810;19.444;2023-12-29T05:02:33;98595.72;;;5.85;73.70
59939;BME280;45801;51.810;19.444;2023-12-29T05:05:00;98591.36;;;5.92;73.29
59939;BME280;45801;51.810;19.444;2023-12-29T05:07:26;98593.71;;;5.97;72.88
59939;BME280;45801;51.810;19.444;2023-12-29T05:09:53;98598.95;;;5.94;72.79
59939;BME280;45801;51.810;19.444;2023-12-29T05:12:20;98600.27;;;5.93;72.92
59939;BME280;45801;51.810;19.444;2023-12-29T05:14:46;98595.52;;;5.95;72.78
59939;BME280;45801;51.810;19.444;2023-12-29T05:17:13;98591.70;;;5.98;72.60
59939;BME280;45801;51.810;19.444;2023-12-29T05:19:39;98592.96;;;5.99;72.67
59939;BME280;45801;51.810;19.444;2023-12-29T05:22:05;98593.80;;;5.98;72.81
59939;BME280;45801;51.810;19.444;2023-12-29T05:24:32;98595.16;;;5.97;72.54
59939;BME280;45801;51.810;19.444;2023-12-29T05:27:00;98590.52;;;5.89;72.77
59939;BME280;45801;51.810;19.444;2023-12-29T05:29:26;98586.74;;;5.87;72.88
59939;BME280;45801;51.810;19.444;2023-12-29T05:31:53;98584.14;;;5.90;72.49
59939;BME280;45801;51.810;19.444;2023-12-29T05:34:19;98581.85;;;5.80;73.09
59939;BME280;45801;51.810;19.444;2023-12-29T05:36:46;98581.66;;;5.75;73.21
59939;BME280;45801;51.810;19.444;2023-12-29T05:39:12;98580.76;;;5.71;73.45
59939;BME280;45801;51.810;19.444;2023-12-29T05:41:39;98579.65;;;5.73;73.03
59939;BME280;45801;51.810;19.444;2023-12-29T05:44:05;98584.34;;;5.74;72.96
59939;BME280;45801;51.810;19.444;2023-12-29T05:46:32;98580.30;;;5.69;73.08
59939;BME280;45801;51.810;19.444;2023-12-29T05:48:58;98581.23;;;5.64;73.10
59939;BME280;45801;51.810;19.444;2023-12-29T05:51:25;98582.15;;;5.64;73.18
59939;BME280;45801;51.810;19.444;2023-12-29T05:53:51;98576.88;;;5.64;73.47
59939;BME280;45801;51.810;19.444;2023-12-29T05:56:18;98572.54;;;5.67;73.01
59939;BME280;45801;51.810;19.444;2023-12-29T05:58:44;98574.39;;;5.69;72.89
59939;BME280;45801;51.810;19.444;2023-12-29T06:01:11;98568.11;;;5.69;72.76
59939;BME280;45801;51.810;19.444;2023-12-29T06:03:38;98570.33;;;5.72;72.60
59939;BME280;45801;51.810;19.444;2023-12-29T06:06:04;98570.92;;;5.69;73.17
59939;BME280;45801;51.810;19.444;2023-12-29T06:08:31;98573.42;;;5.67;73.29
59939;BME280;45801;51.810;19.444;2023-12-29T06:10:57;98582.24;;;5.63;73.70
59939;BME280;45801;51.810;19.444;2023-12-29T06:13:24;98583.30;;;5.64;73.54
59939;BME280;45801;51.810;19.444;2023-12-29T06:15:50;98584.52;;;5.64;73.43
59939;BME280;45801;51.810;19.444;2023-12-29T06:18:17;98581.67;;;5.65;73.39
59939;BME280;45801;51.810;19.444;2023-12-29T06:20:44;98577.61;;;5.68;73.54
59939;BME280;45801;51.810;19.444;2023-12-29T06:23:10;98570.30;;;5.71;73.38
59939;BME280;45801;51.810;19.444;2023-12-29T06:25:37;98567.90;;;5.75;73.07
59939;BME280;45801;51.810;19.444;2023-12-29T06:28:05;98568.19;;;5.74;73.49
59939;BME280;45801;51.810;19.444;2023-12-29T06:30:32;98569.58;;;5.67;73.74
59939;BME280;45801;51.810;19.444;2023-12-29T06:32:59;98567.33;;;5.67;73.55
59939;BME280;45801;51.810;19.444;2023-12-29T06:35:25;98568.52;;;5.70;73.69
59939;BME280;45801;51.810;19.444;2023-12-29T06:37:52;98562.20;;;5.76;73.43
59939;BME280;45801;51.810;19.444;2023-12-29T06:40:19;98555.57;;;5.78;73.27
59939;BME280;45801;51.810;19.444;2023-12-29T06:42:45;98553.17;;;5.82;73.23
59939;BME280;45801;51.810;19.444;2023-12-29T06:45:12;98553.94;;;5.84;73.31
59939;BME280;45801;51.810;19.444;2023-12-29T06:47:38;98554.89;;;5.79;73.51
59939;BME280;45801;51.810;19.444;2023-12-29T06:50:05;98556.48;;;5.76;73.87
59939;BME280;45801;51.810;19.444;2023-12-29T06:52:33;98559.16;;;5.80;73.62
59939;BME280;45801;51.810;19.444;2023-12-29T06:55:03;98561.83;;;5.89;73.51
59939;BME280;45801;51.810;19.444;2023-12-29T06:57:29;98559.91;;;5.95;73.06
59939;BME280;45801;51.810;19.444;2023-12-29T06:59:56;98548.92;;;6.01;73.11
59939;BME280;45801;51.810;19.444;2023-12-29T07:02:22;98544.70;;;6.07;72.83
59939;BME280;45801;51.810;19.444;2023-12-29T07:04:49;98540.98;;;6.09;72.91
59939;BME280;45801;51.810;19.444;2023-12-29T07:07:15;98540.34;;;6.14;72.66
59939;BME280;45801;51.810;19.444;2023-12-29T07:09:42;98547.67;;;6.15;72.63
59939;BME280;45801;51.810;19.444;2023-12-29T07:12:08;98545.85;;;6.13;72.34
59939;BME280;45801;51.810;19.444;2023-12-29T07:14:36;98543.23;;;6.16;72.55
59939;BME280;45801;51.810;19.444;2023-12-29T07:17:03;98547.73;;;6.16;72.43
59939;BME280;45801;51.810;19.444;2023-12-29T07:19:29;98549.97;;;6.08;72.48
59939;BME280;45801;51.810;19.444;2023-12-29T07:22:04;98551.45;;;6.13;72.49
59939;BME280;45801;51.810;19.444;2023-12-29T07:24:35;98548.51;;;6.21;72.46
59939;BME280;45801;51.810;19.444;2023-12-29T07:27:02;98548.07;;;6.26;72.53
59939;BME280;45801;51.810;19.444;2023-12-29T07:29:30;98549.28;;;6.26;72.27
59939;BME280;45801;51.810;19.444;2023-12-29T07:31:56;98547.89;;;6.29;72.45
59939;BME280;45801;51.810;19.444;2023-12-29T07:34:23;98548.11;;;6.34;72.43
59939;BME280;45801;51.810;19.444;2023-12-29T07:36:49;98549.55;;;6.38;72.07
59939;BME280;45801;51.810;19.444;2023-12-29T07:39:16;98552.39;;;6.40;71.84
59939;BME280;45801;51.810;19.444;2023-12-29T07:41:42;98553.57;;;6.42;71.86
59939;BME280;45801;51.810;19.444;2023-12-29T07:44:12;98545.84;;;6.45;71.65
59939;BME280;45801;51.810;19.444;2023-12-29T07:46:39;98544.70;;;6.42;71.78
59939;BME280;45801;51.810;19.444;2023-12-29T07:49:06;98544.16;;;6.42;71.84
59939;BME280;45801;51.810;19.444;2023-12-29T07:51:33;98537.57;;;6.42;71.88
59939;BME280;45801;51.810;19.444;2023-12-29T07:54:00;98536.23;;;6.44;71.85
59939;BME280;45801;51.810;19.444;2023-12-29T07:56:26;98535.61;;;6.42;71.89
59939;BME280;45801;51.810;19.444;2023-12-29T07:58:53;98537.48;;;6.41;72.01
59939;BME280;45801;51.810;19.444;2023-12-29T08:01:19;98535.23;;;6.41;72.02
59939;BME280;45801;51.810;19.444;2023-12-29T08:03:46;98532.41;;;6.33;72.19
59939;BME280;45801;51.810;19.444;2023-12-29T08:06:13;98528.81;;;6.38;72.12
59939;BME280;45801;51.810;19.444;2023-12-29T08:08:39;98526.66;;;6.40;72.16
59939;BME280;45801;51.810;19.444;2023-12-29T08:11:12;98527.42;;;6.41;72.45
59939;BME280;45801;51.810;19.444;2023-12-29T08:13:40;98530.70;;;6.44;72.35
59939;BME280;45801;51.810;19.444;2023-12-29T08:16:06;98526.74;;;6.38;72.85
59939;BME280;45801;51.810;19.444;2023-12-29T08:18:34;98521.23;;;6.36;72.96
59939;BME280;45801;51.810;19.444;2023-12-29T08:21:02;98515.17;;;6.29;73.31
59939;BME280;45801;51.810;19.444;2023-12-29T08:23:28;98515.79;;;6.34;73.14
59939;BME280;45801;51.810;19.444;2023-12-29T08:25:58;98515.60;;;6.38;73.10
59939;BME280;45801;51.810;19.444;2023-12-29T08:28:25;98518.55;;;6.37;73.14
59939;BME280;45801;51.810;19.444;2023-12-29T08:30:51;98519.71;;;6.40;72.96
59939;BME280;45801;51.810;19.444;2023-12-29T08:33:18;98521.44;;;6.43;73.10
59939;BME280;45801;51.810;19.444;2023-12-29T08:35:45;98524.66;;;6.42;73.35
59939;BME280;45801;51.810;19.444;2023-12-29T08:38:12;98528.41;;;6.44;73.31
59939;BME280;45801;51.810;19.444;2023-12-29T08:40:40;98526.05;;;6.42;73.61
59939;BME280;45801;51.810;19.444;2023-12-29T08:43:07;98526.73;;;6.45;73.33
59939;BME280;45801;51.810;19.444;2023-12-29T08:45:34;98523.61;;;6.42;74.01
59939;BME280;45801;51.810;19.444;2023-12-29T08:48:01;98525.40;;;6.43;73.81
59939;BME280;45801;51.810;19.444;2023-12-29T08:50:29;98532.52;;;6.50;73.27
59939;BME280;45801;51.810;19.444;2023-12-29T08:52:56;98540.84;;;6.56;73.49
59939;BME280;45801;51.810;19.444;2023-12-29T08:55:22;98541.23;;;6.61;73.38
59939;BME280;45801;51.810;19.444;2023-12-29T08:57:49;98540.19;;;6.65;73.30
59939;BME280;45801;51.810;19.444;2023-12-29T09:00:15;98540.41;;;6.69;73.09
59939;BME280;45801;51.810;19.444;2023-12-29T09:02:42;98537.91;;;6.75;72.99
59939;BME280;45801;51.810;19.444;2023-12-29T09:05:10;98533.91;;;6.83;72.78
59939;BME280;45801;51.810;19.444;2023-12-29T09:07:36;98532.90;;;6.87;72.83
59939;BME280;45801;51.810;19.444;2023-12-29T09:10:03;98532.23;;;6.88;72.58
59939;BME280;45801;51.810;19.444;2023-12-29T09:12:34;98534.77;;;6.83;73.23
59939;BME280;45801;51.810;19.444;2023-12-29T09:15:01;98533.52;;;6.85;73.18
59939;BME280;45801;51.810;19.444;2023-12-29T09:17:37;98540.11;;;6.85;73.34
59939;BME280;45801;51.810;19.444;2023-12-29T09:20:04;98540.83;;;6.85;73.44
59939;BME280;45801;51.810;19.444;2023-12-29T09:22:32;98539.09;;;6.89;73.45
59939;BME280;45801;51.810;19.444;2023-12-29T09:24:59;98539.58;;;6.96;73.13
59939;BME280;45801;51.810;19.444;2023-12-29T09:27:25;98537.71;;;6.94;73.62
59939;BME280;45801;51.810;19.444;2023-12-29T09:29:52;98538.71;;;6.96;73.42
59939;BME280;45801;51.810;19.444;2023-12-29T09:32:18;98538.08;;;6.98;73.34
59939;BME280;45801;51.810;19.444;2023-12-29T09:34:45;98539.55;;;6.96;73.34
59939;BME280;45801;51.810;19.444;2023-12-29T09:37:11;98537.14;;;7.00;73.31
59939;BME280;45801;51.810;19.444;2023-12-29T09:39:38;98533.39;;;7.02;73.01
59939;BME280;45801;51.810;19.444;2023-12-29T09:42:05;98527.38;;;7.04;73.01
59939;BME280;45801;51.810;19.444;2023-12-29T09:44:35;98526.19;;;7.04;72.97
59939;BME280;45801;51.810;19.444;2023-12-29T09:47:02;98528.97;;;7.04;72.94
59939;BME280;45801;51.810;19.444;2023-12-29T09:49:37;98524.42;;;7.04;72.99
59939;BME280;45801;51.810;19.444;2023-12-29T09:52:09;98516.86;;;7.10;72.81
59939;BME280;45801;51.810;19.444;2023-12-29T09:54:38;98515.09;;;7.09;72.73
59939;BME280;45801;51.810;19.444;2023-12-29T09:57:05;98506.80;;;7.15;72.71
59939;BME280;45801;51.810;19.444;2023-12-29T09:59:35;98508.27;;;7.24;72.28
59939;BME280;45801;51.810;19.444;2023-12-29T10:02:17;98508.66;;;7.25;72.07
59939;BME280;45801;51.810;19.444;2023-12-29T10:04:43;98512.33;;;7.29;72.25
59939;BME280;45801;51.810;19.444;2023-12-29T10:07:15;98509.40;;;7.34;71.65
59939;BME280;45801;51.810;19.444;2023-12-29T10:09:45;98511.92;;;7.32;71.78
59939;BME280;45801;51.810;19.444;2023-12-29T10:12:15;98509.86;;;7.36;71.70
59939;BME280;45801;51.810;19.444;2023-12-29T10:14:53;98507.73;;;7.40;71.28
59939;BME280;45801;51.810;19.444;2023-12-29T10:18:36;98505.17;;;7.41;71.27
59939;BME280;45801;51.810;19.444;2023-12-29T10:20:45;98495.77;;;7.45;71.59
59939;BME280;45801;51.810;19.444;2023-12-29T10:23:37;98507.55;;;7.51;71.35
59939;BME280;45801;51.810;19.444;2023-12-29T10:26:05;98505.86;;;7.57;70.99
59939;BME280;45801;51.810;19.444;2023-12-29T10:28:33;98504.44;;;7.64;70.85
59939;BME280;45801;51.810;19.444;2023-12-29T10:31:00;98499.48;;;7.70;70.84
59939;BME280;45801;51.810;19.444;2023-12-29T10:33:26;98501.41;;;7.71;70.53
59939;BME280;45801;51.810;19.444;2023-12-29T10:36:03;98501.58;;;7.71;70.33
59939;BME280;45801;51.810;19.444;2023-12-29T10:38:31;98496.27;;;7.73;70.53
59939;BME280;45801;51.810;19.444;2023-12-29T10:41:15;98492.02;;;7.75;70.61
59939;BME280;45801;51.810;19.444;2023-12-29T10:43:46;98498.14;;;7.80;70.55
59939;BME280;45801;51.810;19.444;2023-12-29T10:46:21;98500.83;;;7.82;70.28
59939;BME280;45801;51.810;19.444;2023-12-29T10:48:48;98496.70;;;7.87;70.20
59939;BME280;45801;51.810;19.444;2023-12-29T10:51:14;98495.55;;;7.93;69.97
59939;BME280;45801;51.810;19.444;2023-12-29T10:53:41;98495.39;;;7.93;70.04
59939;BME280;45801;51.810;19.444;2023-12-29T10:56:17;98490.36;;;7.98;70.24
59939;BME280;45801;51.810;19.444;2023-12-29T10:58:57;98490.46;;;7.97;69.98
59939;BME280;45801;51.810;19.444;2023-12-29T11:01:24;98487.84;;;8.01;70.15
59939;BME280;45801;51.810;19.444;2023-12-29T11:04:02;98483.58;;;8.07;69.91
59939;BME280;45801;51.810;19.444;2023-12-29T11:06:29;98477.48;;;8.07;69.54
59939;BME280;45801;51.810;19.444;2023-12-29T11:09:05;98470.04;;;8.09;69.70
59939;BME280;45801;51.810;19.444;2023-12-29T11:11:34;98465.84;;;8.13;69.80
59939;BME280;45801;51.810;19.444;2023-12-29T11:14:02;98462.19;;;8.18;69.63
59939;BME280;45801;51.810;19.444;2023-12-29T11:16:30;98459.39;;;8.17;69.50
59939;BME280;45801;51.810;19.444;2023-12-29T11:18:58;98457.27;;;8.21;69.51
59939;BME280;45801;51.810;19.444;2023-12-29T11:21:30;98450.21;;;8.23;69.49
59939;BME280;45801;51.810;19.444;2023-12-29T11:23:56;98445.69;;;8.24;69.35
59939;BME280;45801;51.810;19.444;2023-12-29T11:26:25;98445.23;;;8.25;69.48
59939;BME280;45801;51.810;19.444;2023-12-29T11:28:54;98447.42;;;8.28;69.42
59939;BME280;45801;51.810;19.444;2023-12-29T11:31:20;98444.77;;;8.27;69.30
59939;BME280;45801;51.810;19.444;2023-12-29T11:33:57;98437.63;;;8.27;69.24
59939;BME280;45801;51.810;19.444;2023-12-29T11:36:30;98440.39;;;8.31;69.35
59939;BME280;45801;51.810;19.444;2023-12-29T11:39:04;98437.41;;;8.35;69.22
59939;BME280;45801;51.810;19.444;2023-12-29T11:41:38;98440.80;;;8.37;68.79
59939;BME280;45801;51.810;19.444;2023-12-29T11:44:10;98435.75;;;8.42;69.05
59939;BME280;45801;51.810;19.444;2023-12-29T11:46:38;98430.31;;;8.45;68.69
59939;BME280;45801;51.810;19.444;2023-12-29T11:49:05;98428.83;;;8.47;68.45
59939;BME280;45801;51.810;19.444;2023-12-29T11:54:09;98423.39;;;8.60;68.02
59939;BME280;45801;51.810;19.444;2023-12-29T11:56:38;98420.96;;;8.65;67.82
59939;BME280;45801;51.810;19.444;2023-12-29T12:01:43;98418.14;;;8.78;67.28
59939;BME280;45801;51.810;19.444;2023-12-29T12:04:38;98400.27;;;8.86;67.18
59939;BME280;45801;51.810;19.444;2023-12-29T12:07:10;98405.55;;;8.87;66.18
59939;BME280;45801;51.810;19.444;2023-12-29T12:09:39;98403.63;;;8.92;66.04
59939;BME280;45801;51.810;19.444;2023-12-29T12:12:05;98411.77;;;8.95;65.74
59939;BME280;45801;51.810;19.444;2023-12-29T12:17:12;98415.60;;;8.95;65.61
59939;BME280;45801;51.810;19.444;2023-12-29T12:19:39;98425.23;;;9.00;65.83
59939;BME280;45801;51.810;19.444;2023-12-29T12:22:06;98425.58;;;9.05;65.66
59939;BME280;45801;51.810;19.444;2023-12-29T12:24:36;98425.73;;;9.09;65.39
59939;BME280;45801;51.810;19.444;2023-12-29T12:27:09;98422.45;;;9.10;64.98
59939;BME280;45801;51.810;19.444;2023-12-29T12:29:36;98418.37;;;9.13;65.32
59939;BME280;45801;51.810;19.444;2023-12-29T12:32:03;98419.87;;;9.12;65.13
59939;BME280;45801;51.810;19.444;2023-12-29T12:34:37;98424.00;;;9.09;64.64
59939;BME280;45801;51.810;19.444;2023-12-29T12:37:05;98424.86;;;9.09;65.02
59939;BME280;45801;51.810;19.444;2023-12-29T12:39:40;98423.73;;;9.12;65.07
59939;BME280;45801;51.810;19.444;2023-12-29T12:42:07;98419.38;;;9.16;65.17
59939;BME280;45801;51.810;19.444;2023-12-29T12:44:33;98424.54;;;9.20;65.04
59939;BME280;45801;51.810;19.444;2023-12-29T12:47:09;98420.70;;;9.20;64.85
59939;BME280;45801;51.810;19.444;2023-12-29T12:49:40;98415.45;;;9.20;64.87
59939;BME280;45801;51.810;19.444;2023-12-29T12:52:08;98418.34;;;9.22;64.77
59939;BME280;45801;51.810;19.444;2023-12-29T12:54:45;98428.73;;;9.24;64.79
59939;BME280;45801;51.810;19.444;2023-12-29T12:57:20;98426.86;;;9.26;64.87
59939;BME280;45801;51.810;19.444;2023-12-29T12:59:48;98425.48;;;9.32;65.10
59939;BME280;45801;51.810;19.444;2023-12-29T13:02:17;98427.41;;;9.32;65.04
59939;BME280;45801;51.810;19.444;2023-12-29T13:04:44;98427.48;;;9.33;65.20
59939;BME280;45801;51.810;19.444;2023-12-29T13:07:10;98428.16;;;9.33;65.03
59939;BME280;45801;51.810;19.444;2023-12-29T13:09:41;98424.03;;;9.35;64.87
59939;BME280;45801;51.810;19.444;2023-12-29T13:12:11;98417.58;;;9.35;64.88
59939;BME280;45801;51.810;19.444;2023-12-29T13:14:39;98421.24;;;9.35;64.99
59939;BME280;45801;51.810;19.444;2023-12-29T13:17:11;98421.44;;;9.36;65.09